Time;durP1;ratioP1;P1;durP2;ratioP2;P2;SDS_P1;SDS_P2;PMS_P1;PMS_P2;Temp;Humidity;BMP_temperature;BMP_pressure;BME280_temperature;BME280_humidity;BME280_pressure;Samples;Min_cycle;Max_cycle;Signal;HPM_P1;HPM_P2
2022/07/27 00:02:20;;;;;;;5.15;1.00;;;;;;;19.16;63.92;100771.66;4989615;28;20049;-82
2022/07/27 00:05:25;;;;;;;4.28;1.08;;;;;;;18.93;65.49;100772.78;4989498;28;20144;-83
2022/07/27 00:08:31;;;;;;;6.97;3.20;;;;;;;18.79;66.13;100769.47;4978135;28;20045;-83
2022/07/27 00:11:34;;;;;;;3.20;1.08;;;;;;;18.67;65.02;100770.44;4956860;28;20049;-83
2022/07/27 00:14:38;;;;;;;5.82;1.30;;;;;;;18.65;65.82;100759.13;4970119;28;20559;-83
2022/07/27 00:17:41;;;;;;;4.13;1.52;;;;;;;18.52;66.71;100763.75;4969941;28;20126;-82
2022/07/27 00:20:45;;;;;;;5.60;1.20;;;;;;;18.50;67.14;100771.81;4970535;28;20057;-84
2022/07/27 00:23:48;;;;;;;3.78;1.48;;;;;;;18.42;67.59;100773.41;4987117;28;20061;-84
2022/07/27 00:26:52;;;;;;;4.22;1.33;;;;;;;18.32;67.41;100766.22;4988976;28;20096;-84
2022/07/27 00:29:55;;;;;;;2.83;1.10;;;;;;;18.28;67.22;100764.78;4988846;28;20054;-84
2022/07/27 00:32:59;;;;;;;2.95;0.93;;;;;;;18.27;67.31;100763.09;4988726;28;20053;-84
2022/07/27 00:36:03;;;;;;;3.05;0.90;;;;;;;18.28;67.77;100772.75;4987072;28;20057;-84
2022/07/27 00:39:06;;;;;;;2.05;0.90;;;;;;;18.49;66.20;100762.19;4957992;28;20073;-83
2022/07/27 00:42:09;;;;;;;2.53;0.98;;;;;;;18.44;66.72;100782.06;4969632;28;20050;-84
2022/07/27 00:45:13;;;;;;;6.65;1.08;;;;;;;18.38;67.36;100780.78;4969692;28;20050;-84
2022/07/27 00:48:17;;;;;;;6.68;1.25;;;;;;;18.33;67.50;100781.13;4969168;28;20145;-84
2022/07/27 00:51:21;;;;;;;4.57;1.10;;;;;;;18.64;66.62;100783.09;4969605;28;20413;-84
2022/07/27 00:54:24;;;;;;;5.38;0.80;;;;;;;18.49;67.20;100780.72;4957573;28;20527;-84
2022/07/27 00:57:28;;;;;;;3.13;1.30;;;;;;;18.51;67.07;100778.81;4969713;28;20416;-84
2022/07/27 01:00:31;;;;;;;4.03;1.08;;;;;;;18.58;66.82;100771.19;4969957;28;20112;-83
2022/07/27 01:03:35;;;;;;;6.43;1.38;;;;;;;18.61;66.48;100768.28;4969538;28;20107;-83
2022/07/27 01:06:40;;;;;;;3.70;0.75;;;;;;;18.53;66.07;100771.56;4969013;28;20185;-83
2022/07/27 01:09:56;;;;;;;2.70;0.70;;;;;;;18.59;65.41;100770.22;4969324;28;20078;-83
2022/07/27 01:13:01;;;;;;;4.90;1.42;;;;;;;18.65;65.03;100764.44;4969378;28;20050;-83
2022/07/27 01:16:05;;;;;;;4.47;0.75;;;;;;;18.82;64.32;100765.69;4969168;28;20531;-83
2022/07/27 01:19:10;;;;;;;4.97;1.05;;;;;;;18.60;65.10;100769.25;4968857;28;20049;-84
2022/07/27 01:22:14;;;;;;;3.33;1.10;;;;;;;18.65;65.66;100768.88;4969263;28;20141;-83
2022/07/27 01:25:18;;;;;;;3.53;1.17;;;;;;;18.56;66.03;100765.19;4961037;28;20046;-84
2022/07/27 01:28:22;;;;;;;3.78;0.70;;;;;;;18.51;66.72;100776.16;4973062;28;20054;-83
2022/07/27 01:31:25;;;;;;;4.97;0.77;;;;;;;18.40;67.31;100772.69;4960943;28;20193;-83
2022/07/27 01:34:32;;;;;;;4.68;0.80;;;;;;;18.39;67.29;100768.38;4972193;28;20078;-83
2022/07/27 01:37:35;;;;;;;5.93;1.08;;;;;;;18.65;65.96;100769.72;4972251;28;20178;-83
2022/07/27 01:40:38;;;;;;;4.45;1.08;;;;;;;18.51;66.09;100770.03;4972565;28;20045;-82
2022/07/27 01:43:43;;;;;;;2.83;0.70;;;;;;;18.56;64.28;100763.38;4972344;28;20049;-82
2022/07/27 01:46:47;;;;;;;4.07;0.93;;;;;;;18.49;65.50;100758.72;4972721;28;20512;-82
2022/07/27 01:49:50;;;;;;;11.55;1.05;;;;;;;18.27;66.83;100767.53;4991630;28;20041;-82
2022/07/27 01:52:53;;;;;;;2.70;0.70;;;;;;;18.32;66.91;100774.16;4991522;28;20132;-82
2022/07/27 01:55:58;;;;;;;3.42;0.80;;;;;;;18.17;67.85;100775.38;4991115;28;20539;-82
2022/07/27 01:59:01;;;;;;;4.50;0.80;;;;;;;18.27;67.22;100781.63;4991101;28;20116;-83
2022/07/27 02:02:04;;;;;;;2.95;0.93;;;;;;;18.21;67.41;100783.91;4991158;28;20042;-82
2022/07/27 02:05:11;;;;;;;6.07;1.38;;;;;;;18.45;65.83;100778.47;4991577;28;20048;-84
2022/07/27 02:08:14;;;;;;;4.30;1.10;;;;;;;18.10;68.37;100784.78;4979503;28;20054;-81
2022/07/27 02:14:40;;;;;;;4.75;1.17;;;;;;;17.82;69.92;100771.09;4990871;28;20561;-80
2022/07/27 02:17:45;;;;;;;3.95;1.23;;;;;;;17.99;67.45;100761.81;4991142;28;20077;-79
2022/07/27 02:20:48;;;;;;;5.88;1.02;;;;;;;18.03;67.55;100765.09;4991711;28;20136;-79
2022/07/27 02:23:51;;;;;;;5.10;1.17;;;;;;;18.07;68.56;100762.06;4991366;28;20053;-80
2022/07/27 02:26:55;;;;;;;22.17;8.13;;;;;;;18.03;69.14;100768.56;4991094;28;20104;-80
2022/07/27 02:29:59;;;;;;;21.42;8.10;;;;;;;18.13;68.51;100768.66;4990887;28;20089;-80
2022/07/27 02:33:04;;;;;;;2.70;1.00;;;;;;;18.00;68.57;100767.97;4990267;28;20056;-80
2022/07/27 02:36:09;;;;;;;11.75;3.97;;;;;;;17.84;69.70;100771.81;4990852;28;20514;-81
2022/07/27 02:39:12;;;;;;;14.00;5.40;;;;;;;17.72;70.15;100770.09;4991043;28;20049;-81
2022/07/27 02:42:16;;;;;;;28.38;13.35;;;;;;;17.67;70.57;100774.91;4991210;28;20093;-80
2022/07/27 02:45:23;;;;;;;4.32;1.40;;;;;;;17.58;70.86;100768.56;4990509;28;20050;-80
2022/07/27 02:48:26;;;;;;;6.53;2.10;;;;;;;17.73;70.03;100771.78;4990426;28;20407;-81
2022/07/27 02:51:29;;;;;;;35.92;20.45;;;;;;;17.54;71.04;100777.66;4990457;28;20073;-80
2022/07/27 02:54:34;;;;;;;44.50;24.42;;;;;;;17.51;71.47;100777.06;4990380;28;20472;-80
2022/07/27 02:57:39;;;;;;;34.30;16.42;;;;;;;17.65;70.94;100768.91;4990410;28;20088;-83
2022/07/27 03:00:44;;;;;;;34.22;15.57;;;;;;;17.56;70.83;100774.91;4990080;28;20514;-82
2022/07/27 03:03:47;;;;;;;8.18;3.50;;;;;;;17.93;67.49;100767.59;4978752;28;20104;-81
2022/07/27 03:06:51;;;;;;;3.88;1.05;;;;;;;17.83;66.77;100771.94;4978376;28;20057;-81
2022/07/27 03:09:55;;;;;;;7.22;3.28;;;;;;;18.07;66.07;100777.09;4989981;28;20050;-81
2022/07/27 03:13:00;;;;;;;6.10;2.13;;;;;;;17.89;68.27;100774.09;4978139;28;20102;-82
2022/07/27 03:16:03;;;;;;;25.98;10.45;;;;;;;17.86;68.45;100783.09;4958661;28;20612;-81
2022/07/27 03:19:07;;;;;;;6.50;2.13;;;;;;;18.02;67.37;100781.91;4970549;28;20045;-82
2022/07/27 03:22:11;;;;;;;8.43;2.42;;;;;;;18.16;65.92;100776.38;4971242;28;20049;-82
2022/07/27 03:25:15;;;;;;;7.38;1.70;;;;;;;18.10;65.36;100774.22;4970872;28;20136;-82
2022/07/27 03:28:19;;;;;;;4.55;1.10;;;;;;;17.95;65.72;100786.00;4976331;28;20528;-81
2022/07/27 03:31:22;;;;;;;13.15;6.00;;;;;;;18.03;66.13;100780.97;4966598;28;20137;-81
2022/07/27 03:34:25;;;;;;;12.10;4.03;;;;;;;18.07;65.51;100780.56;4989597;28;20130;-80
2022/07/27 03:37:29;;;;;;;5.47;1.10;;;;;;;17.99;65.37;100782.13;4989792;28;20049;-81
2022/07/27 03:40:32;;;;;;;5.93;2.03;;;;;;;17.72;67.27;100790.44;4989873;28;20079;-81
2022/07/27 03:43:36;;;;;;;5.18;1.13;;;;;;;17.85;66.31;100785.88;4989638;28;20104;-82
2022/07/27 03:46:39;;;;;;;3.75;1.27;;;;;;;17.48;68.84;100787.88;4976865;28;20131;-81
2022/07/27 03:49:43;;;;;;;9.35;3.22;;;;;;;17.59;68.37;100790.53;4989110;28;20084;-81
2022/07/27 03:52:46;;;;;;;7.30;1.80;;;;;;;17.75;66.93;100788.38;4989383;28;20069;-82
2022/07/27 03:55:50;;;;;;;3.80;1.58;;;;;;;17.74;67.01;100792.00;4989300;28;20419;-82
2022/07/27 03:58:54;;;;;;;6.78;1.75;;;;;;;17.65;66.62;100790.91;4969977;28;20050;-82
2022/07/27 04:01:57;;;;;;;3.80;1.17;;;;;;;17.73;67.91;100785.00;4970409;28;20050;-81
2022/07/27 04:05:01;;;;;;;6.28;1.67;;;;;;;17.49;69.66;100789.56;4958080;28;20630;-77
2022/07/27 04:08:04;;;;;;;5.47;1.52;;;;;;;17.54;69.46;100782.09;4957952;28;20046;-76
2022/07/27 04:11:08;;;;;;;7.50;1.85;;;;;;;17.60;68.13;100792.22;4975366;28;20112;-78
2022/07/27 04:14:13;;;;;;;5.35;1.27;;;;;;;17.92;66.99;100794.19;4989061;28;20061;-78
2022/07/27 04:17:18;;;;;;;6.32;1.00;;;;;;;17.86;67.26;100801.63;4977508;28;20115;-77
2022/07/27 04:20:21;;;;;;;4.45;1.35;;;;;;;17.71;68.76;100799.31;4989301;28;20048;-78
2022/07/27 04:23:24;;;;;;;5.43;1.30;;;;;;;17.66;69.60;100800.50;4989413;28;20535;-76
2022/07/27 04:26:28;;;;;;;7.60;1.50;;;;;;;17.66;70.31;100808.44;4987954;28;20116;-76
2022/07/27 04:29:32;;;;;;;6.97;1.52;;;;;;;17.64;70.97;100799.81;4987300;28;20045;-77
2022/07/27 04:32:36;;;;;;;4.75;1.05;;;;;;;17.52;71.73;100799.91;4988820;28;20565;-77
2022/07/27 04:35:39;;;;;;;5.78;1.17;;;;;;;17.53;72.33;100796.28;4988493;28;20122;-77
2022/07/27 04:38:43;;;;;;;5.90;1.23;;;;;;;17.55;72.38;100800.50;4989415;28;20045;-77
2022/07/27 04:41:46;;;;;;;6.68;1.30;;;;;;;17.74;71.58;100797.28;4974719;28;20908;-76
2022/07/27 04:44:50;;;;;;;7.63;1.20;;;;;;;17.67;72.08;100806.63;4988820;28;20095;-76
2022/07/27 04:47:54;;;;;;;3.78;1.00;;;;;;;17.61;72.35;100805.34;4988064;28;20045;-77
2022/07/27 04:50:58;;;;;;;3.95;0.90;;;;;;;17.57;72.53;100808.31;4987315;28;20057;-74
2022/07/27 04:54:01;;;;;;;3.25;1.05;;;;;;;17.71;72.32;100801.94;4987089;28;20065;-73
2022/07/27 04:57:05;;;;;;;5.47;0.93;;;;;;;17.82;70.37;100805.47;4969740;28;20105;-73
2022/07/27 05:00:10;;;;;;;4.88;1.25;;;;;;;17.86;70.24;100804.28;4972797;28;20607;-73
2022/07/27 05:03:14;;;;;;;5.20;1.58;;;;;;;18.11;67.21;100800.53;4972742;28;20277;-73
2022/07/27 05:06:17;;;;;;;6.32;1.23;;;;;;;18.00;69.13;100816.44;4972290;28;20041;-73
2022/07/27 05:09:21;;;;;;;5.65;1.48;;;;;;;17.88;68.97;100812.94;4986119;28;20201;-73
2022/07/27 05:12:24;;;;;;;6.03;1.30;;;;;;;18.07;66.32;100809.69;4992130;28;20514;-73
2022/07/27 05:15:31;;;;;;;7.13;1.65;;;;;;;18.03;67.10;100815.34;4992212;28;20040;-72
2022/07/27 05:18:35;;;;;;;7.65;1.20;;;;;;;18.18;66.42;100819.41;4991828;28;20046;-72
2022/07/27 05:21:45;;;;;;;8.15;1.30;;;;;;;18.17;65.18;100823.03;4991501;28;20057;-72
2022/07/27 05:24:48;;;;;;;6.10;1.52;;;;;;;18.13;64.26;100830.38;4991646;28;20057;-72
2022/07/27 05:27:52;;;;;;;9.15;1.40;;;;;;;18.17;64.03;100838.91;4990746;28;20092;-71
2022/07/27 05:30:56;;;;;;;7.68;1.70;;;;;;;18.20;64.85;100832.53;4990563;28;20045;-72
2022/07/27 05:33:59;;;;;;;7.90;1.73;;;;;;;18.22;63.46;100839.41;4990593;28;20049;-73
2022/07/27 05:37:03;;;;;;;8.98;1.42;;;;;;;18.39;62.57;100831.91;4990536;28;20562;-70
2022/07/27 05:40:07;;;;;;;7.32;1.90;;;;;;;18.46;62.81;100841.03;4991846;28;20463;-71
2022/07/27 05:43:12;;;;;;;5.93;1.10;;;;;;;18.35;62.53;100837.44;4991398;28;20045;-72
2022/07/27 05:46:16;;;;;;;6.57;1.33;;;;;;;18.49;62.40;100859.31;4991559;28;20764;-71
2022/07/27 05:49:20;;;;;;;14.40;2.28;;;;;;;18.56;61.41;100855.22;4990112;28;20049;-73
2022/07/27 05:52:24;;;;;;;4.00;1.10;;;;;;;18.58;60.66;100856.78;4985484;28;20053;-78
2022/07/27 05:55:27;;;;;;;8.20;1.42;;;;;;;18.22;62.19;100862.34;4990421;28;20049;-75
2022/07/27 05:58:31;;;;;;;5.50;1.05;;;;;;;18.40;62.00;100863.53;4990092;28;20091;-76
2022/07/27 06:01:34;;;;;;;11.93;1.75;;;;;;;18.44;61.99;100866.78;4990714;28;20145;-76
2022/07/27 06:04:38;;;;;;;7.85;1.33;;;;;;;18.32;61.99;100864.16;4990220;28;20197;-76
2022/07/27 06:08:01;;;;;;;8.38;1.83;;;;;;;18.22;62.12;100868.50;4989948;28;20053;-76
2022/07/27 06:11:05;;;;;;;6.57;1.55;;;;;;;18.14;61.88;100862.97;4991825;28;20554;-72
2022/07/27 06:14:08;;;;;;;7.40;1.60;;;;;;;17.81;62.69;100883.16;4991207;28;20052;-72
2022/07/27 06:17:11;;;;;;;7.35;1.20;;;;;;;17.67;63.10;100884.16;4991124;28;20048;-73
2022/07/27 06:20:15;;;;;;;6.60;1.52;;;;;;;17.87;63.15;100885.34;4990265;28;20037;-73
2022/07/27 06:23:18;;;;;;;7.50;1.60;;;;;;;17.89;62.59;100879.91;4990073;28;20086;-75
2022/07/27 06:26:21;;;;;;;5.32;1.35;;;;;;;18.00;62.00;100879.94;4991171;28;20188;-72
2022/07/27 06:29:25;;;;;;;9.07;1.92;;;;;;;18.31;61.23;100874.84;4991059;28;20138;-73
2022/07/27 06:32:28;;;;;;;7.00;1.90;;;;;;;17.90;61.43;100884.25;4991148;28;20073;-73
2022/07/27 06:35:32;;;;;;;10.60;2.05;;;;;;;17.48;62.14;100890.97;4988493;28;20049;-73
2022/07/27 06:38:36;;;;;;;8.20;1.33;;;;;;;18.03;60.70;100895.56;4989397;28;20108;-73
2022/07/27 06:41:39;;;;;;;9.45;2.00;;;;;;;18.19;60.65;100887.28;4989398;28;20057;-74
2022/07/27 06:44:49;;;;;;;4.55;1.30;;;;;;;18.04;60.94;100885.81;4989018;28;20049;-73
2022/07/27 06:47:52;;;;;;;9.98;2.40;;;;;;;18.10;60.56;100886.19;4988727;28;20514;-74
2022/07/27 06:50:56;;;;;;;7.05;1.38;;;;;;;18.39;59.57;100887.50;4990499;28;20124;-75
2022/07/27 06:53:59;;;;;;;7.25;1.60;;;;;;;18.04;60.25;100885.81;4988770;28;20097;-74
2022/07/27 06:57:03;;;;;;;8.90;1.80;;;;;;;17.88;60.91;100886.16;4989744;28;20194;-74
2022/07/27 07:00:07;;;;;;;3.78;1.17;;;;;;;17.52;62.09;100881.88;4989936;28;20125;-72
2022/07/27 07:03:10;;;;;;;8.30;1.35;;;;;;;17.51;61.68;100888.09;4988997;28;20133;-75
2022/07/27 07:06:15;;;;;;;10.00;1.63;;;;;;;17.59;61.67;100889.22;4989400;28;20458;-78
2022/07/27 07:09:18;;;;;;;5.05;1.25;;;;;;;17.73;61.79;100888.16;4990076;28;20045;-71
2022/07/27 07:12:21;;;;;;;4.60;1.17;;;;;;;17.88;61.19;100884.38;4990563;28;20727;-72
2022/07/27 07:15:25;;;;;;;5.82;1.38;;;;;;;17.83;61.30;100883.88;4989551;28;20699;-73
2022/07/27 07:18:28;;;;;;;10.43;1.67;;;;;;;18.04;61.28;100891.13;4989295;28;20072;-80
2022/07/27 07:21:31;;;;;;;5.78;1.20;;;;;;;17.97;60.68;100890.75;4989629;28;20064;-74
2022/07/27 07:24:35;;;;;;;8.40;1.42;;;;;;;18.13;60.72;100882.47;4989523;28;20045;-76
2022/07/27 07:27:38;;;;;;;8.18;1.60;;;;;;;18.20;59.93;100891.59;4989337;28;20048;-81
2022/07/27 07:30:43;;;;;;;8.70;1.63;;;;;;;18.29;59.32;100880.28;4989038;28;20325;-73
2022/07/27 07:33:46;;;;;;;6.47;1.65;;;;;;;18.12;60.11;100889.56;4989045;28;20534;-72
2022/07/27 07:36:49;;;;;;;7.07;1.73;;;;;;;18.13;58.14;100885.13;4988856;28;20404;-74
2022/07/27 07:39:53;;;;;;;7.63;1.63;;;;;;;17.89;59.80;100886.03;4988121;28;20061;-73
2022/07/27 07:43:02;;;;;;;8.82;1.65;;;;;;;18.11;58.98;100887.03;4989015;28;20048;-73
2022/07/27 07:46:05;;;;;;;11.50;1.88;;;;;;;18.21;58.49;100887.97;4975121;28;20057;-73
2022/07/27 07:49:09;;;;;;;5.75;1.75;;;;;;;18.41;57.61;100893.50;4988719;28;20046;-73
2022/07/27 07:52:17;;;;;;;9.43;1.70;;;;;;;17.97;57.92;100888.09;4989136;28;20049;-75
2022/07/27 07:55:26;;;;;;;;;;;;;;;17.99;57.98;100888.81;4989576;28;20065;-74
2022/07/27 07:58:30;;;;;;;9.50;1.48;;;;;;;18.26;57.44;100880.53;4989274;28;19979;-74
2022/07/27 08:01:55;;;;;;;6.38;1.77;;;;;;;18.29;56.98;100879.47;4962411;28;20055;-75
2022/07/27 08:04:58;;;;;;;10.02;1.75;;;;;;;18.43;55.99;100886.28;4969158;28;20102;-75
2022/07/27 08:08:03;;;;;;;5.43;1.10;;;;;;;18.33;53.49;100876.44;4957498;28;20050;-74
2022/07/27 08:11:07;;;;;;;8.82;1.70;;;;;;;18.53;52.59;100881.94;4969752;28;20053;-79
2022/07/27 08:14:10;;;;;;;4.60;1.45;;;;;;;18.40;52.32;100889.19;4962514;28;20056;-82
2022/07/27 08:17:13;;;;;;;5.53;1.33;;;;;;;18.58;53.06;100885.91;4988627;28;20057;-84
2022/07/27 08:20:17;;;;;;;7.68;1.50;;;;;;;18.46;52.17;100883.41;4988294;28;20097;-82
2022/07/27 08:23:20;;;;;;;11.55;1.35;;;;;;;18.77;51.81;100881.81;4983600;28;20097;-81
2022/07/27 08:26:24;;;;;;;6.10;0.90;;;;;;;18.84;51.49;100885.66;4974934;28;20081;-79
2022/07/27 08:29:28;;;;;;;12.43;1.90;;;;;;;19.01;51.15;100892.22;4973852;28;20132;-82
2022/07/27 08:32:31;;;;;;;11.55;1.83;;;;;;;19.14;51.17;100882.28;4989099;28;20482;-76
2022/07/27 08:35:35;;;;;;;6.15;1.35;;;;;;;19.24;49.92;100874.41;4992099;28;20049;-80
2022/07/27 08:38:45;;;;;;;5.80;1.50;;;;;;;19.44;49.41;100875.41;4979841;28;20065;-79
2022/07/27 08:41:52;;;;;;;9.00;1.60;;;;;;;19.36;48.12;100868.06;4991749;28;20100;-78
2022/07/27 08:44:58;;;;;;;6.70;1.20;;;;;;;19.69;48.44;100869.75;4992215;28;20418;-80
2022/07/27 08:48:02;;;;;;;9.88;1.52;;;;;;;19.83;47.15;100867.72;4991301;28;20050;-81
2022/07/27 08:51:08;;;;;;;5.57;1.10;;;;;;;19.46;46.85;100876.97;4993018;28;20126;-82
2022/07/27 08:54:12;;;;;;;6.45;1.10;;;;;;;19.49;48.24;100865.22;4992170;28;20053;-71
2022/07/27 08:57:16;;;;;;;7.20;1.38;;;;;;;19.25;47.75;100871.63;4992118;28;20064;-72
2022/07/27 09:00:24;;;;;;;6.80;1.15;;;;;;;18.82;47.69;100874.31;4992168;28;20494;-73
2022/07/27 09:03:28;;;;;;;6.45;1.23;;;;;;;19.00;47.33;100874.63;4972409;28;20093;-71
2022/07/27 09:06:50;;;;;;;4.10;0.85;;;;;;;19.18;46.36;100869.63;4972515;28;20054;-76
2022/07/27 09:09:53;;;;;;;4.60;1.60;;;;;;;19.23;46.33;100868.25;4972586;28;20062;-80
2022/07/27 09:12:58;;;;;;;5.60;1.40;;;;;;;19.23;44.81;100880.69;4989555;28;20441;-79
2022/07/27 09:16:04;;;;;;;3.88;0.70;;;;;;;19.34;44.75;100874.50;4991294;28;20518;-81
2022/07/27 09:19:09;;;;;;;4.45;1.17;;;;;;;19.05;46.05;100877.75;4971544;28;20109;-80
2022/07/27 09:22:12;;;;;;;7.15;1.10;;;;;;;19.10;47.08;100874.72;4971998;28;20101;-80
2022/07/27 09:25:29;;;;;;;6.28;0.98;;;;;;;19.42;46.41;100874.69;4973117;28;20049;-79
2022/07/27 09:28:32;;;;;;;6.70;1.20;;;;;;;19.84;46.67;100864.06;4991350;28;20524;-81
2022/07/27 09:31:48;;;;;;;7.97;1.42;;;;;;;20.13;45.29;100865.06;4990986;28;20491;-80
2022/07/27 09:34:51;;;;;;;7.03;1.77;;;;;;;20.30;44.50;100852.13;4973757;28;20074;-81
2022/07/27 09:38:17;;;;;;;3.83;0.98;;;;;;;20.60;43.91;100854.75;4990198;28;20049;-81
2022/07/27 09:41:22;;;;;;;6.05;1.40;;;;;;;20.61;44.13;100848.47;4991295;28;20037;-81
2022/07/27 09:44:36;;;;;;;8.68;1.42;;;;;;;20.70;42.79;100865.38;4990774;28;20666;-81
2022/07/27 09:47:40;;;;;;;9.88;1.05;;;;;;;20.02;44.10;100846.56;4991388;28;20096;-79
2022/07/27 09:51:06;;;;;;;4.20;0.80;;;;;;;20.29;43.86;100853.09;4990138;28;20053;-81
2022/07/27 09:54:10;;;;;;;6.13;1.02;;;;;;;20.49;44.09;100860.16;4990338;28;20370;-79
2022/07/27 09:57:14;;;;;;;5.97;1.63;;;;;;;20.33;43.53;100870.47;4990907;28;20136;-81
2022/07/27 10:00:17;;;;;;;5.80;1.27;;;;;;;19.90;45.67;100864.38;4990676;28;20093;-79
2022/07/27 10:03:21;;;;;;;5.35;1.20;;;;;;;19.79;44.80;100855.69;4989303;28;20044;-81
2022/07/27 10:06:25;;;;;;;5.35;1.30;;;;;;;20.40;44.57;100853.00;4987244;28;20045;-81
2022/07/27 10:09:29;;;;;;;4.60;1.00;;;;;;;20.55;43.99;100843.69;4988202;28;20417;-81
2022/07/27 10:12:32;;;;;;;4.90;0.98;;;;;;;20.72;43.86;100844.00;4976624;28;20376;-79
2022/07/27 10:15:43;;;;;;;6.97;0.95;;;;;;;20.73;43.64;100856.31;4989187;28;20048;-78
2022/07/27 10:19:04;;;;;;;5.38;0.80;;;;;;;20.80;43.74;100860.06;4948248;28;20045;-80
2022/07/27 10:22:08;;;;;;;5.70;0.98;;;;;;;20.88;42.44;100865.56;4972935;28;20610;-73
2022/07/27 10:25:11;;;;;;;14.65;1.10;;;;;;;20.66;41.32;100856.84;4989081;28;20324;-80
2022/07/27 10:28:16;;;;;;;4.20;1.00;;;;;;;21.14;41.23;100863.19;4979580;28;20523;-83
2022/07/27 10:31:22;;;;;;;4.70;0.80;;;;;;;20.91;39.90;100862.63;4988533;28;20045;-78
2022/07/27 10:34:33;;;;;;;5.03;0.77;;;;;;;20.31;41.00;100861.78;4990004;28;20049;-80
2022/07/27 10:37:37;;;;;;;4.68;1.05;;;;;;;20.62;42.95;100871.41;4969860;28;20109;-80
2022/07/27 10:40:41;;;;;;;4.40;0.68;;;;;;;20.47;42.97;100872.72;4988617;28;20065;-79
2022/07/27 10:43:44;;;;;;;8.27;0.95;;;;;;;20.15;42.42;100865.75;4989512;28;20053;-79
2022/07/27 10:46:57;;;;;;;2.70;0.88;;;;;;;20.25;42.24;100862.31;4989940;28;20037;-78
2022/07/27 10:50:22;;;;;;;7.50;1.10;;;;;;;20.47;41.66;100861.25;4990359;28;20044;-80
2022/07/27 10:53:36;;;;;;;2.25;0.57;;;;;;;20.50;40.23;100867.13;4989995;28;20264;-80
2022/07/27 10:56:46;;;;;;;2.75;0.82;;;;;;;20.42;39.48;100856.34;4989554;28;20134;-80
2022/07/27 10:59:49;;;;;;;2.33;0.52;;;;;;;20.85;40.04;100856.03;4989058;28;20531;-76
2022/07/27 11:02:55;;;;;;;2.92;0.70;;;;;;;21.46;40.33;100848.78;4988336;28;20064;-79
2022/07/27 11:06:18;;;;;;;4.72;0.80;;;;;;;21.67;40.16;100867.22;4989514;28;20665;-75
2022/07/27 11:09:21;;;;;;;4.57;0.82;;;;;;;21.21;40.21;100866.13;4989972;28;20045;-73
2022/07/27 11:12:27;;;;;;;2.45;0.60;;;;;;;21.57;41.08;100852.13;4989393;28;20053;-83
2022/07/27 11:15:31;;;;;;;2.92;0.60;;;;;;;21.65;39.32;100847.88;4977512;28;20089;-82
2022/07/27 11:18:57;;;;;;;4.63;0.60;;;;;;;21.64;40.11;100862.19;4988607;28;20049;-82
2022/07/27 11:22:02;;;;;;;2.38;0.70;;;;;;;22.03;38.72;100869.06;4989893;28;20056;-80
2022/07/27 11:25:07;;;;;;;3.67;0.73;;;;;;;21.49;37.75;100859.13;4970158;28;20268;-80
2022/07/27 11:28:10;;;;;;;3.95;0.80;;;;;;;21.74;37.94;100847.03;4969035;28;20078;-76
2022/07/27 11:31:14;;;;;;;2.97;0.60;;;;;;;21.90;37.97;100839.25;4973506;28;20096;-79
2022/07/27 11:34:34;;;;;;;3.25;1.13;;;;;;;21.51;38.43;100839.38;4988354;28;20053;-79
2022/07/27 11:37:37;;;;;;;3.05;0.93;;;;;;;21.72;38.09;100843.66;4988569;28;20044;-84
2022/07/27 11:40:47;;;;;;;4.35;0.88;;;;;;;22.06;37.74;100831.47;4988844;28;20104;-78
2022/07/27 11:43:51;;;;;;;1.98;0.77;;;;;;;21.53;37.97;100829.41;4988231;28;20105;-71
2022/07/27 11:46:56;;;;;;;4.97;1.17;;;;;;;21.53;38.13;100829.41;4987360;28;20045;-71
2022/07/27 11:50:07;;;;;;;2.15;0.60;;;;;;;21.38;38.44;100840.66;4988600;28;20509;-70
2022/07/27 11:53:11;;;;;;;5.47;0.90;;;;;;;21.56;38.38;100838.94;4988775;28;20577;-71
2022/07/27 11:56:25;;;;;;;3.22;0.77;;;;;;;21.06;38.76;100837.31;4988781;28;20057;-71
2022/07/27 11:59:33;;;;;;;4.30;0.60;;;;;;;21.42;38.76;100826.09;4987582;28;20118;-72
2022/07/27 12:02:37;;;;;;;2.53;0.68;;;;;;;21.95;37.71;100823.69;4989040;28;20072;-72
2022/07/27 12:05:40;;;;;;;4.03;0.85;;;;;;;21.55;37.39;100826.63;4989057;28;20121;-71
2022/07/27 12:08:43;;;;;;;3.95;0.73;;;;;;;21.56;38.08;100829.13;4989029;28;20049;-71
2022/07/27 12:11:53;;;;;;;1.80;0.65;;;;;;;21.43;38.40;100830.44;4989889;28;20757;-72
2022/07/27 12:15:12;;;;;;;2.50;0.65;;;;;;;21.30;39.07;100836.03;4989203;28;20049;-70
2022/07/27 12:19:06;;;;;;;4.05;1.10;;;;;;;20.90;38.62;100837.03;4988407;28;20049;-73
2022/07/27 12:22:09;;;;;;;3.65;0.70;;;;;;;20.97;39.03;100832.00;4989203;28;20049;-72
2022/07/27 12:25:16;;;;;;;2.70;0.70;;;;;;;21.71;38.29;100831.34;4988120;28;20040;-71
2022/07/27 12:28:24;;;;;;;2.25;0.82;;;;;;;22.20;37.59;100834.66;4986808;28;20126;-79
2022/07/27 12:31:27;;;;;;;3.42;0.70;;;;;;;22.16;36.14;100836.78;4987985;28;20040;-81
2022/07/27 12:34:32;;;;;;;3.50;0.80;;;;;;;22.49;35.90;100822.03;4988022;28;20571;-75
2022/07/27 12:37:41;;;;;;;4.45;0.75;;;;;;;22.88;34.89;100824.41;4976737;28;20065;-74
2022/07/27 12:40:50;;;;;;;2.17;0.50;;;;;;;22.66;33.87;100816.88;4988784;28;20065;-68
2022/07/27 12:44:14;;;;;;;2.40;0.80;;;;;;;23.20;33.74;100805.22;4987984;28;20147;-69
2022/07/27 12:50:43;;;;;;;4.70;0.80;;;;;;;21.92;35.93;100812.47;4989104;28;20081;-67
2022/07/27 12:53:46;;;;;;;3.72;0.82;;;;;;;22.33;35.53;100811.19;4988533;28;20050;-68
2022/07/27 12:56:51;;;;;;;2.53;0.50;;;;;;;23.34;33.58;100785.13;4987231;28;20204;-74
2022/07/27 12:59:54;;;;;;;6.18;1.00;;;;;;;23.16;33.63;100800.31;4987471;28;20041;-72
2022/07/27 13:02:58;;;;;;;4.43;1.02;;;;;;;22.54;34.51;100792.25;4987788;28;20113;-72
2022/07/27 13:06:02;;;;;;;5.13;1.05;;;;;;;23.49;33.09;100787.22;4987703;28;20038;-74
2022/07/27 13:09:05;;;;;;;2.10;0.52;;;;;;;24.00;32.21;100783.66;4988167;28;20184;-79
2022/07/27 13:12:09;;;;;;;5.35;0.50;;;;;;;23.67;33.20;100783.50;4987599;28;20165;-76
2022/07/27 13:15:14;;;;;;;4.20;0.60;;;;;;;24.63;31.48;100776.16;4988044;28;20101;-77
2022/07/27 13:18:17;;;;;;;1.65;0.50;;;;;;;24.84;31.06;100779.19;4989240;28;20041;-81
2022/07/27 13:21:20;;;;;;;4.65;0.60;;;;;;;23.75;32.32;100788.06;4991079;28;20101;-72
2022/07/27 13:24:25;;;;;;;2.15;0.52;;;;;;;22.64;33.65;100792.19;4990597;28;20133;-73
2022/07/27 13:27:28;;;;;;;3.50;0.60;;;;;;;22.59;33.62;100792.66;4990419;28;20137;-73
2022/07/27 13:31:22;;;;;;;2.45;0.88;;;;;;;22.66;33.71;100791.06;4992083;28;20121;-76
2022/07/27 13:34:25;;;;;;;3.83;0.50;;;;;;;23.46;32.52;100776.88;4971775;28;20053;-85
2022/07/27 13:37:29;;;;;;;2.70;0.82;;;;;;;25.08;30.92;100775.69;4971615;28;20058;-82
2022/07/27 13:40:32;;;;;;;2.47;0.68;;;;;;;26.00;28.85;100776.13;4979144;28;20129;-88
2022/07/27 13:43:35;;;;;;;2.63;0.68;;;;;;;25.49;30.01;100772.94;4991531;28;20053;-85
2022/07/27 13:46:39;;;;;;;1.80;0.50;;;;;;;25.89;29.05;100773.84;4990822;28;20112;-87
2022/07/27 13:49:43;;;;;;;1.65;0.47;;;;;;;26.40;28.17;100774.25;4990191;28;20125;-83
2022/07/27 13:52:47;;;;;;;1.38;0.40;;;;;;;26.27;28.22;100779.34;4990576;28;20065;-84
2022/07/27 13:55:50;;;;;;;2.13;0.55;;;;;;;26.74;27.43;100789.97;4989598;28;20100;-81
2022/07/27 13:58:55;;;;;;;2.53;0.43;;;;;;;28.49;24.91;100775.16;4990536;28;20407;-82
2022/07/27 14:01:58;;;;;;;4.50;1.08;;;;;;;25.47;29.41;100778.47;4991192;28;20509;-86
2022/07/27 14:05:02;;;;;;;9.05;0.90;;;;;;;25.70;28.90;100786.59;4991270;28;20108;-83
2022/07/27 14:08:06;;;;;;;2.90;0.47;;;;;;;26.64;27.07;100776.81;4990238;28;20062;-82
2022/07/27 14:11:10;;;;;;;2.28;0.57;;;;;;;24.90;30.24;100783.03;4990540;28;20096;-79
2022/07/27 14:14:13;;;;;;;2.63;0.52;;;;;;;24.46;29.56;100789.50;4990871;28;20033;-81
2022/07/27 14:17:17;;;;;;;2.40;0.50;;;;;;;23.15;33.14;100788.00;4989971;28;20046;-81
2022/07/27 14:20:23;;;;;;;4.55;0.45;;;;;;;23.20;32.54;100791.03;4990682;28;20125;-85
2022/07/27 14:23:27;;;;;;;4.68;0.98;;;;;;;22.72;32.85;100795.78;4977958;28;20061;-85
2022/07/27 14:26:34;;;;;;;3.30;0.90;;;;;;;22.77;33.11;100792.63;4966631;28;20057;-84
2022/07/27 14:29:37;;;;;;;3.85;0.50;;;;;;;24.00;32.29;100797.03;4989443;28;20646;-82